createdAt,value
2017-11-09T00:00:49.752Z,97.90
2017-11-09T00:03:26.182Z,101.40
2017-11-09T00:06:15.448Z,109.93
2017-11-09T00:08:53.387Z,96.83
2017-11-09T00:11:27.074Z,102.70
2017-11-09T00:14:03.010Z,105.53
2017-11-09T00:19:15.940Z,100.77
2017-11-09T00:21:50.629Z,109.37
2017-11-09T00:24:46.720Z,107.53
2017-11-09T00:27:26.272Z,106.50
2017-11-09T00:29:57.676Z,101.63
2017-11-09T00:32:30.967Z,139.97
2017-11-09T00:35:35.756Z,102.53
2017-11-09T00:41:18.841Z,105.20
2017-11-09T00:43:51.413Z,104.27
2017-11-09T00:46:23.623Z,104.00
2017-11-09T00:48:57.738Z,106.27
2017-11-09T00:51:43.323Z,107.23
2017-11-09T00:54:15.666Z,119.03
2017-11-09T00:56:51.501Z,109.57
2017-11-09T00:59:26.641Z,116.43
2017-11-09T01:04:34.985Z,108.20
2017-11-09T01:07:11.851Z,103.70
2017-11-09T01:09:48.002Z,116.53
2017-11-09T01:12:21.995Z,111.10
2017-11-09T01:14:55.615Z,115.23
2017-11-09T01:17:29.936Z,112.20
2017-11-09T01:20:07.372Z,111.60
2017-11-09T01:22:44.893Z,110.33
2017-11-09T01:25:34.279Z,111.00
2017-11-09T01:28:04.410Z,110.00
2017-11-09T01:30:39.002Z,115.13
2017-11-09T01:33:12.123Z,109.20
2017-11-09T01:35:49.040Z,114.23
2017-11-09T01:38:21.887Z,107.50
2017-11-09T01:40:54.528Z,108.93
2017-11-09T01:43:28.327Z,99.70
2017-11-09T01:45:59.308Z,106.37
2017-11-09T01:48:31.838Z,117.03
2017-11-09T01:53:47.000Z,115.43
2017-11-09T01:56:37.065Z,110.27
2017-11-09T01:59:07.341Z,115.13
2017-11-09T02:01:39.992Z,102.03
2017-11-09T02:04:10.008Z,109.73
2017-11-09T02:06:40.439Z,102.13
2017-11-09T02:09:15.673Z,117.17
2017-11-09T02:11:46.300Z,106.60
2017-11-09T02:14:54.710Z,108.60
2017-11-09T02:17:30.567Z,109.87
2017-11-09T02:20:04.067Z,104.40
2017-11-09T02:22:49.644Z,90.20
2017-11-09T02:25:26.625Z,98.30
2017-11-09T02:28:11.666Z,107.53
2017-11-09T02:30:42.879Z,101.33
2017-11-09T02:33:16.480Z,101.17
2017-11-09T02:36:08.155Z,99.93
2017-11-09T02:38:46.555Z,91.17
2017-11-09T02:41:26.206Z,87.70
2017-11-09T02:44:01.131Z,96.80
2017-11-09T02:46:34.629Z,90.80
2017-11-09T02:49:05.340Z,109.13
2017-11-09T02:51:38.659Z,98.43
2017-11-09T02:54:14.756Z,101.83
2017-11-09T02:56:53.534Z,110.37
2017-11-09T03:02:53.580Z,103.30
2017-11-09T03:08:21.564Z,100.30
2017-11-09T03:11:00.755Z,107.60
2017-11-09T03:13:34.491Z,108.33
2017-11-09T03:18:38.277Z,104.23
2017-11-09T03:21:15.223Z,113.67
2017-11-09T03:23:51.735Z,103.93
2017-11-09T03:26:20.018Z,116.07
2017-11-09T03:28:54.772Z,95.87
2017-11-09T03:31:28.056Z,100.40
2017-11-09T03:34:01.801Z,107.03
2017-11-09T03:36:32.833Z,100.57
2017-11-09T03:39:04.059Z,100.07
2017-11-09T03:41:32.172Z,103.17
2017-11-09T03:44:01.440Z,95.53
2017-11-09T03:46:30.828Z,96.20
2017-11-09T03:49:06.346Z,102.13
2017-11-09T03:51:37.593Z,111.77
2017-11-09T03:54:12.951Z,96.57
2017-11-09T03:56:48.019Z,99.87
2017-11-09T03:59:25.071Z,96.53
2017-11-09T04:02:00.522Z,92.33
2017-11-09T04:13:36.946Z,90.37
2017-11-09T04:18:55.318Z,88.30
2017-11-09T04:21:23.047Z,99.50
2017-11-09T04:23:51.684Z,91.10
2017-11-09T04:26:19.531Z,90.83
2017-11-09T04:29:06.832Z,99.63
2017-11-09T04:32:03.918Z,90.83
2017-11-09T04:34:32.945Z,89.50
2017-11-09T04:37:00.720Z,91.97
2017-11-09T04:39:30.039Z,90.87
2017-11-09T04:41:59.579Z,90.43
2017-11-09T04:44:35.453Z,90.03
2017-11-09T04:47:04.882Z,87.70
2017-11-09T04:49:39.915Z,94.23
2017-11-09T04:52:14.271Z,107.37
2017-11-09T04:55:00.117Z,91.27
2017-11-09T04:57:43.488Z,90.87
2017-11-09T05:00:19.885Z,96.27
2017-11-09T05:08:56.959Z,101.07
2017-11-09T05:11:41.045Z,89.27
2017-11-09T05:17:06.962Z,87.53
2017-11-09T05:25:18.200Z,85.83
2017-11-09T05:27:51.214Z,88.20
2017-11-09T05:30:20.464Z,89.67
2017-11-09T05:32:51.338Z,94.70
2017-11-09T05:35:20.691Z,94.17
2017-11-09T05:37:49.179Z,94.70
2017-11-09T05:40:16.793Z,90.13
2017-11-09T05:42:51.192Z,88.17
2017-11-09T05:45:19.643Z,89.10
2017-11-09T05:48:13.778Z,85.90
2017-11-09T05:50:59.179Z,85.17
2017-11-09T05:53:29.849Z,90.43
2017-11-09T05:55:57.387Z,88.20
2017-11-09T05:58:24.948Z,86.73
2017-11-09T06:00:52.479Z,79.93
2017-11-09T06:03:20.036Z,92.13
2017-11-09T06:05:47.585Z,84.97
2017-11-09T06:08:15.862Z,79.30
2017-11-09T06:10:43.415Z,84.17
2017-11-09T06:13:11.713Z,83.97
2017-11-09T06:15:39.268Z,83.47
2017-11-09T06:18:06.795Z,91.87
2017-11-09T06:20:34.315Z,84.07
2017-11-09T06:23:01.844Z,88.87
2017-11-09T06:25:29.376Z,77.73
2017-11-09T06:27:57.669Z,79.97
2017-11-09T06:30:25.203Z,81.30
2017-11-09T06:32:53.582Z,83.20
2017-11-09T06:35:21.116Z,78.27
2017-11-09T06:37:49.410Z,81.67
2017-11-09T06:40:16.952Z,83.47
2017-11-09T06:42:44.456Z,78.83
2017-11-09T06:45:12.748Z,84.27
2017-11-09T06:47:40.251Z,92.47
2017-11-09T06:50:07.768Z,84.30
2017-11-09T06:52:35.274Z,81.47
2017-11-09T06:55:02.795Z,85.27
2017-11-09T06:57:30.301Z,69.97
2017-11-09T06:59:57.837Z,86.57
2017-11-09T07:02:25.331Z,84.63
2017-11-09T07:04:52.883Z,76.70
2017-11-09T07:07:21.195Z,88.60
2017-11-09T07:09:48.712Z,84.87
2017-11-09T07:12:16.208Z,84.30
2017-11-09T07:14:43.729Z,92.60
2017-11-09T07:17:11.227Z,89.23
2017-11-09T07:19:38.747Z,99.57
2017-11-09T07:22:07.020Z,93.03
2017-11-09T07:24:34.743Z,88.67
2017-11-09T07:27:02.344Z,94.27
2017-11-09T07:29:30.647Z,82.30
2017-11-09T07:31:58.912Z,92.97
2017-11-09T07:34:26.454Z,91.97
2017-11-09T07:36:53.950Z,95.27
2017-11-09T07:39:21.468Z,182.07
2017-11-09T07:41:49.230Z,100.70
2017-11-09T07:44:16.755Z,97.80
2017-11-09T07:46:44.256Z,90.93
2017-11-09T07:49:11.796Z,91.67
2017-11-09T07:51:39.307Z,90.93
2017-11-09T07:54:06.833Z,92.60
2017-11-09T07:56:34.338Z,98.70
2017-11-09T07:59:01.871Z,94.90
2017-11-09T08:01:29.391Z,109.30
2017-11-09T08:03:56.932Z,92.63
2017-11-09T08:06:24.428Z,92.23
2017-11-09T08:08:51.947Z,87.47
2017-11-09T08:11:19.448Z,464.30
2017-11-09T08:13:46.949Z,98.47
2017-11-09T08:16:14.472Z,87.37
2017-11-09T08:18:42.774Z,98.87
2017-11-09T08:21:10.298Z,86.43
2017-11-09T08:23:38.568Z,85.77
2017-11-09T08:26:07.124Z,90.73
2017-11-09T08:28:37.878Z,88.03
2017-11-09T08:31:07.080Z,82.80
2017-11-09T08:33:34.866Z,91.67
2017-11-09T08:36:03.149Z,90.43
2017-11-09T08:38:30.679Z,93.80
2017-11-09T08:40:58.203Z,90.63
2017-11-09T08:43:25.723Z,93.37
2017-11-09T08:45:54.047Z,86.40
2017-11-09T08:48:21.587Z,87.90
2017-11-09T08:50:49.104Z,93.10
2017-11-09T08:53:17.377Z,91.13
2017-11-09T08:55:44.923Z,81.63
2017-11-09T08:58:12.415Z,86.30
2017-11-09T09:00:40.691Z,85.57
2017-11-09T09:03:08.948Z,93.53
2017-11-09T09:05:36.500Z,84.63
2017-11-09T09:08:03.991Z,92.80
2017-11-09T09:10:32.282Z,85.97
2017-11-09T09:12:59.774Z,78.50
2017-11-09T09:15:27.291Z,81.70
2017-11-09T09:17:54.785Z,83.20
2017-11-09T09:20:23.227Z,82.07
2017-11-09T09:22:52.169Z,80.13
2017-11-09T09:25:37.345Z,79.97
2017-11-09T09:28:07.330Z,76.40
2017-11-09T09:30:34.866Z,79.53
2017-11-09T09:33:23.306Z,79.23
2017-11-09T09:35:53.056Z,88.60
2017-11-09T09:38:29.110Z,84.67
2017-11-09T09:40:56.651Z,73.43
2017-11-09T09:43:24.154Z,68.93
2017-11-09T09:45:51.678Z,73.50
2017-11-09T09:48:19.203Z,66.83
2017-11-09T09:50:47.509Z,71.30
2017-11-09T09:53:15.019Z,66.23
2017-11-09T09:55:42.544Z,68.23
2017-11-09T09:58:10.039Z,70.50
2017-11-09T10:00:37.567Z,73.43
2017-11-09T10:03:05.072Z,63.50
2017-11-09T10:05:33.367Z,67.20
2017-11-09T10:08:01.656Z,60.80
2017-11-09T10:10:29.199Z,61.30
2017-11-09T10:12:56.769Z,65.47
2017-11-09T10:15:24.300Z,59.30
2017-11-09T10:17:52.581Z,65.90
2017-11-09T10:20:20.880Z,55.03
2017-11-09T10:22:48.395Z,50.77
2017-11-09T10:25:16.756Z,54.30
2017-11-09T10:27:44.265Z,55.90
2017-11-09T10:30:12.560Z,53.93
2017-11-09T10:32:40.056Z,52.07
2017-11-09T10:35:07.584Z,61.23
2017-11-09T10:37:35.095Z,52.97
2017-11-09T10:40:02.616Z,59.97
2017-11-09T10:42:30.124Z,51.40
2017-11-09T10:44:58.415Z,45.70
2017-11-09T10:47:26.675Z,37.80
2017-11-09T10:49:54.972Z,38.33
2017-11-09T10:52:22.483Z,45.00
2017-11-09T10:54:50.006Z,47.83
2017-11-09T10:57:17.507Z,42.30
2017-11-09T10:59:45.314Z,42.47
2017-11-09T11:02:24.342Z,38.40
2017-11-09T11:04:51.864Z,40.73
2017-11-09T11:07:20.128Z,36.50
2017-11-09T11:09:48.415Z,42.17
2017-11-09T11:12:16.676Z,41.50
2017-11-09T11:14:44.970Z,38.17
2017-11-09T11:17:13.234Z,38.40
2017-11-09T11:19:40.772Z,37.33
2017-11-09T11:22:08.268Z,38.63
2017-11-09T11:24:35.786Z,38.33
2017-11-09T11:27:03.287Z,43.33
2017-11-09T11:29:30.812Z,42.80
2017-11-09T11:31:58.314Z,44.27
2017-11-09T11:34:25.836Z,34.97
2017-11-09T11:36:54.101Z,35.03
2017-11-09T11:39:21.619Z,33.73
2017-11-09T11:41:49.119Z,35.00
2017-11-09T11:44:16.650Z,38.60
2017-11-09T11:46:44.159Z,36.40
2017-11-09T11:49:12.443Z,34.47
2017-11-09T11:51:39.955Z,32.60
2017-11-09T11:54:07.474Z,32.17
2017-11-09T11:56:34.979Z,25.33
2017-11-09T11:59:02.511Z,23.03
2017-11-09T12:01:30.008Z,29.93
2017-11-09T12:03:57.528Z,26.13
2017-11-09T12:06:25.023Z,22.70
2017-11-09T12:08:52.560Z,23.87
2017-11-09T12:11:20.063Z,27.07
2017-11-09T12:13:48.349Z,26.20
2017-11-09T12:16:15.854Z,28.47
2017-11-09T12:18:43.371Z,28.83
2017-11-09T12:21:10.875Z,28.43
2017-11-09T12:23:38.394Z,27.43
2017-11-09T12:26:05.903Z,26.93
2017-11-09T12:28:33.434Z,26.97
2017-11-09T12:31:02.725Z,29.27
2017-11-09T12:33:30.249Z,30.13
2017-11-09T12:35:57.751Z,32.23
2017-11-09T12:38:25.270Z,33.17
2017-11-09T12:40:53.540Z,35.67
2017-11-09T12:43:21.828Z,33.57
2017-11-09T12:45:49.336Z,33.90
2017-11-09T12:48:16.869Z,32.30
2017-11-09T12:50:44.367Z,32.30
2017-11-09T12:53:11.892Z,33.30
2017-11-09T12:55:39.402Z,31.00
2017-11-09T12:58:07.685Z,33.67
2017-11-09T13:00:35.972Z,34.13
2017-11-09T13:03:03.476Z,31.47
2017-11-09T13:05:30.999Z,29.80
2017-11-09T13:07:58.495Z,34.73
2017-11-09T13:10:26.020Z,29.83
2017-11-09T13:12:53.515Z,34.13
2017-11-09T13:15:21.046Z,33.87
2017-11-09T13:17:48.545Z,35.07
2017-11-09T13:20:16.071Z,33.87
2017-11-09T13:22:43.567Z,33.30
2017-11-09T13:25:11.084Z,32.50
2017-11-09T13:27:38.583Z,34.80
2017-11-09T13:30:06.104Z,33.80
2017-11-09T13:32:33.603Z,40.83
2017-11-09T13:35:01.127Z,47.97
2017-11-09T13:37:28.657Z,54.00
2017-11-09T13:39:56.243Z,58.10
2017-11-09T13:42:23.739Z,72.43
2017-11-09T13:44:51.257Z,64.90
2017-11-09T13:47:18.759Z,72.40
2017-11-09T13:49:46.272Z,67.17
2017-11-09T13:52:13.763Z,70.60
2017-11-09T13:54:41.283Z,78.10
2017-11-09T13:57:08.775Z,79.13
2017-11-09T13:59:36.291Z,76.23
2017-11-09T14:02:03.787Z,70.03
2017-11-09T14:04:31.303Z,74.40
2017-11-09T14:06:58.807Z,79.43
2017-11-09T14:09:26.324Z,65.90
2017-11-09T14:11:53.816Z,70.37
2017-11-09T14:14:21.331Z,75.33
2017-11-09T14:16:48.837Z,73.40
2017-11-09T14:19:16.356Z,64.27
2017-11-09T14:21:47.545Z,78.50
2017-11-09T14:24:15.067Z,74.40
2017-11-09T14:26:42.559Z,75.27
2017-11-09T14:29:10.071Z,69.80
2017-11-09T14:31:37.566Z,70.73
2017-11-09T14:34:05.080Z,65.03
2017-11-09T14:36:32.586Z,64.63
2017-11-09T14:39:00.113Z,70.73
2017-11-09T14:41:28.379Z,80.03
2017-11-09T14:43:55.901Z,78.57
2017-11-09T14:46:23.399Z,73.63
2017-11-09T14:48:50.916Z,69.07
2017-11-09T14:51:18.426Z,80.07
2017-11-09T14:53:46.707Z,65.90
2017-11-09T14:56:14.967Z,70.80
2017-11-09T14:58:42.483Z,70.90
2017-11-09T15:01:09.976Z,76.53
2017-11-09T15:03:37.499Z,78.67
2017-11-09T15:06:05.217Z,80.97
2017-11-09T15:08:33.494Z,75.77
2017-11-09T15:11:04.591Z,79.20
2017-11-09T15:13:35.586Z,73.00
2017-11-09T15:16:03.079Z,81.07
2017-11-09T15:18:30.595Z,66.20
2017-11-09T15:20:58.852Z,72.50
2017-11-09T15:23:29.492Z,70.43
2017-11-09T15:26:09.119Z,66.93
2017-11-09T15:28:36.635Z,75.40
2017-11-09T15:31:04.139Z,67.27
2017-11-09T15:33:31.655Z,70.47
2017-11-09T15:36:35.403Z,67.17
2017-11-09T15:39:03.704Z,66.30
2017-11-09T15:41:31.214Z,62.40
2017-11-09T15:43:58.732Z,73.03
2017-11-09T15:46:28.244Z,72.43
2017-11-09T15:49:01.723Z,74.83
2017-11-09T15:51:34.743Z,63.37
2017-11-09T15:54:02.263Z,68.93
2017-11-09T15:56:29.755Z,67.53
2017-11-09T15:58:58.044Z,67.77
2017-11-09T16:01:25.540Z,75.73
2017-11-09T16:03:53.051Z,67.17
2017-11-09T16:06:21.307Z,74.60
2017-11-09T16:08:48.818Z,71.83
2017-11-09T16:11:16.310Z,75.63
2017-11-09T16:13:43.824Z,77.70
2017-11-09T16:16:11.318Z,72.90
2017-11-09T16:18:38.841Z,73.57
2017-11-09T16:21:10.774Z,77.13
2017-11-09T16:23:39.056Z,67.83
2017-11-09T16:26:09.862Z,75.67
2017-11-09T16:28:52.602Z,74.90
2017-11-09T16:31:20.095Z,64.43
2017-11-09T16:33:47.607Z,73.00
2017-11-09T16:36:18.807Z,77.17
2017-11-09T16:38:46.336Z,74.13
2017-11-09T16:41:19.192Z,74.30
2017-11-09T16:43:46.707Z,80.97
2017-11-09T16:46:14.212Z,79.97
2017-11-09T16:48:41.732Z,82.17
2017-11-09T16:51:09.224Z,87.40
2017-11-09T16:53:36.750Z,85.03
2017-11-09T16:56:05.013Z,86.23
2017-11-09T16:58:32.532Z,86.60
2017-11-09T17:01:00.047Z,74.10
2017-11-09T17:03:33.132Z,80.13
2017-11-09T17:06:00.648Z,87.47
2017-11-09T17:08:28.947Z,91.73
2017-11-09T17:10:57.195Z,78.73
2017-11-09T17:13:27.739Z,78.70
2017-11-09T17:15:55.240Z,77.93
2017-11-09T17:18:22.754Z,81.53
2017-11-09T17:20:50.242Z,82.57
2017-11-09T17:26:06.261Z,79.63
2017-11-09T17:28:33.783Z,84.60
2017-11-09T17:31:01.280Z,82.10
2017-11-09T17:33:28.807Z,71.07
2017-11-09T17:35:56.298Z,93.20
2017-11-09T17:38:23.831Z,85.57
2017-11-09T17:40:51.349Z,80.03
2017-11-09T17:43:18.863Z,78.10
2017-11-09T17:45:46.371Z,81.43
2017-11-09T17:48:13.888Z,74.73
2017-11-09T17:50:42.155Z,77.07
2017-11-09T17:53:09.671Z,85.27
2017-11-09T17:55:37.163Z,87.23
2017-11-09T17:58:05.802Z,84.80
2017-11-09T18:03:34.477Z,78.50
2017-11-09T18:06:01.977Z,77.40
2017-11-09T18:08:29.524Z,85.90
2017-11-09T18:10:57.022Z,80.03
2017-11-09T18:13:24.567Z,79.03
2017-11-09T18:15:52.063Z,83.43
2017-11-09T18:18:29.667Z,81.57
2017-11-09T18:20:57.183Z,83.77
2017-11-09T18:23:26.391Z,77.83
2017-11-09T18:25:59.888Z,74.17
2017-11-09T18:28:28.167Z,72.13
2017-11-09T18:30:56.424Z,83.97
2017-11-09T18:33:23.943Z,73.93
2017-11-09T18:35:51.448Z,76.47
2017-11-09T18:38:18.966Z,76.10
2017-11-09T18:40:46.464Z,76.73
2017-11-09T18:43:13.982Z,79.07
2017-11-09T18:45:41.475Z,80.40
2017-11-09T18:48:08.996Z,77.33
2017-11-09T18:50:36.498Z,74.13
2017-11-09T18:53:04.038Z,81.10
2017-11-09T18:55:31.556Z,85.47
2017-11-09T18:57:59.070Z,76.50
2017-11-09T19:00:28.511Z,71.10
2017-11-09T19:02:56.023Z,79.07
2017-11-09T19:05:23.519Z,81.17
2017-11-09T19:07:51.048Z,77.33
2017-11-09T19:10:18.546Z,81.77
2017-11-09T19:12:46.063Z,80.63
2017-11-09T19:15:13.560Z,73.13
2017-11-09T19:17:41.078Z,83.13
2017-11-09T19:20:08.591Z,81.13
2017-11-09T19:22:36.107Z,76.73
2017-11-09T19:25:04.399Z,76.57
2017-11-09T19:27:32.025Z,81.70
2017-11-09T19:30:00.295Z,79.20
2017-11-09T19:32:28.632Z,81.80
2017-11-09T19:34:56.127Z,79.60
2017-11-09T19:37:23.642Z,74.47
2017-11-09T19:39:51.141Z,78.57
2017-11-09T19:42:18.663Z,69.07
2017-11-09T19:44:46.163Z,69.13
2017-11-09T19:47:13.684Z,67.30
2017-11-09T19:49:41.178Z,54.43
2017-11-09T19:52:08.699Z,52.33
2017-11-09T19:54:36.200Z,54.10
2017-11-09T19:57:04.493Z,49.27
2017-11-09T19:59:32.755Z,43.50
2017-11-09T20:02:00.271Z,40.77
2017-11-09T20:04:27.764Z,39.90
2017-11-09T20:06:55.282Z,43.03
2017-11-09T20:09:22.784Z,38.13
2017-11-09T20:11:50.306Z,44.87
2017-11-09T20:14:17.807Z,33.53
2017-11-09T20:16:45.322Z,36.77
2017-11-09T20:19:12.815Z,35.63
2017-11-09T20:21:41.095Z,35.00
2017-11-09T20:24:09.203Z,41.30
2017-11-09T20:26:40.198Z,35.63
2017-11-09T20:29:08.467Z,37.93
2017-11-09T20:31:36.750Z,33.30
2017-11-09T20:34:05.006Z,33.17
2017-11-09T20:36:32.530Z,31.30
2017-11-09T20:39:00.035Z,35.30
2017-11-09T20:41:27.561Z,33.77
2017-11-09T20:43:55.059Z,40.90
2017-11-09T20:46:23.340Z,38.93
2017-11-09T20:48:50.843Z,49.67
2017-11-09T20:51:18.335Z,35.90
2017-11-09T20:53:45.879Z,33.73
2017-11-09T20:56:13.375Z,34.90
2017-11-09T20:58:40.899Z,32.70
2017-11-09T21:01:10.310Z,35.13
2017-11-09T21:03:38.602Z,33.37
2017-11-09T21:06:06.858Z,32.97
2017-11-09T21:08:34.378Z,35.07
2017-11-09T21:11:01.876Z,34.77
2017-11-09T21:13:29.443Z,34.93
2017-11-09T21:15:57.706Z,35.87
2017-11-09T21:18:25.256Z,33.57
2017-11-09T21:20:52.764Z,29.70
2017-11-09T21:23:20.287Z,32.10
2017-11-09T21:25:47.780Z,35.87
2017-11-09T21:28:15.301Z,29.90
2017-11-09T21:30:56.696Z,28.13
2017-11-09T21:33:24.219Z,32.03
2017-11-09T21:35:51.736Z,25.20
2017-11-09T21:38:19.272Z,28.30
2017-11-09T21:40:46.773Z,26.63
2017-11-09T21:43:15.063Z,27.23
2017-11-09T21:45:43.332Z,22.73
2017-11-09T21:48:11.616Z,23.13
2017-11-09T21:50:39.885Z,26.90
2017-11-09T21:53:08.166Z,22.37
2017-11-09T21:55:36.431Z,17.83
2017-11-09T21:58:05.726Z,23.93
2017-11-09T22:00:33.237Z,18.70
2017-11-09T22:03:00.763Z,17.80
2017-11-09T22:05:29.027Z,20.30
2017-11-09T22:07:56.543Z,19.10
2017-11-09T22:10:24.031Z,19.83
2017-11-09T22:12:51.542Z,19.27
2017-11-09T22:15:19.039Z,20.60
2017-11-09T22:17:47.983Z,17.97
2017-11-09T22:20:18.743Z,19.00
2017-11-09T22:22:47.356Z,19.50
2017-11-09T22:25:15.626Z,20.00
2017-11-09T22:27:43.915Z,20.27
2017-11-09T22:30:12.176Z,21.70
2017-11-09T22:32:40.456Z,20.50
2017-11-09T22:35:08.715Z,21.57
2017-11-09T22:37:36.230Z,27.73
2017-11-09T22:40:03.718Z,28.07
2017-11-09T22:42:31.240Z,23.10
2017-11-09T22:44:58.730Z,24.27
2017-11-09T22:47:26.247Z,21.83
2017-11-09T22:49:53.756Z,26.90
2017-11-09T22:52:21.287Z,23.33
2017-11-09T22:54:48.779Z,21.47
2017-11-09T22:57:16.296Z,28.33
2017-11-09T22:59:43.794Z,22.17
2017-11-09T23:02:12.075Z,24.47
2017-11-09T23:04:39.563Z,22.40
2017-11-09T23:07:07.846Z,21.10
2017-11-09T23:09:35.343Z,26.17
2017-11-09T23:12:02.860Z,22.43
2017-11-09T23:14:30.356Z,155.57
2017-11-09T23:16:57.866Z,28.30
2017-11-09T23:19:26.172Z,23.40
2017-11-09T23:21:53.682Z,23.97
2017-11-09T23:24:21.175Z,25.37
2017-11-09T23:26:48.693Z,28.90
2017-11-09T23:29:16.189Z,26.07
2017-11-09T23:31:43.708Z,26.87
2017-11-09T23:34:11.224Z,26.50
2017-11-09T23:36:38.735Z,29.70
2017-11-09T23:39:06.999Z,25.90
2017-11-09T23:41:34.515Z,31.90
2017-11-09T23:44:02.007Z,27.53
2017-11-09T23:46:29.518Z,25.07
2017-11-09T23:48:57.013Z,28.43
2017-11-09T23:51:24.527Z,32.03
2017-11-09T23:53:52.014Z,30.87
2017-11-09T23:56:19.535Z,30.10
2017-11-09T23:58:47.791Z,27.53
